Sharon, Connecticut
Current Conditions -  °F | °C
As of 7:53 AM on Saturday 25 Oct 2014 (Local Time) from KPOU Reporting Station
Scattered Clouds Scattered Clouds  
Wind Chill: 35°   Ceiling: Unl
Heat Index: 35°   Visibility: 10mi
Dew Point: 33°   Wind: 0mph
Humidity: 92%   Direction: NA
Pressure: 29.86"   Gusts: NA
Location:  41.88°N, 73.48°W
Report Text: KPOU 251153Z 00000KT 10SM SCT002 02/01 A2986 RMK AO2 SLP108 I6000 T00170006 10044 20011 51002
Loading
Personal Weather Stations






























Interactive Weather Map
Tropical Storm Tracking
New forecast layout! Learn more

10-Day Weather Forecast

Advertisements
Track Severe Weather on mobile